sensor_id;sensor_type;location;lat;lon;timestamp;P1;durP1;ratioP1;P2;durP2;ratioP2
78412;SDS011;67707;52.348;13.660;2023-02-15T00:00:52;18.95;;;13.20;;
78412;SDS011;67707;52.348;13.660;2023-02-15T00:03:19;19.17;;;12.10;;
78412;SDS011;67707;52.348;13.660;2023-02-15T00:05:45;17.55;;;11.30;;
78412;SDS011;67707;52.348;13.660;2023-02-15T00:08:10;16.90;;;10.63;;
78412;SDS011;67707;52.348;13.660;2023-02-15T00:10:36;14.60;;;9.70;;
78412;SDS011;67707;52.348;13.660;2023-02-15T00:13:01;17.60;;;10.47;;
78412;SDS011;67707;52.348;13.660;2023-02-15T00:15:26;14.33;;;9.03;;
78412;SDS011;67707;52.348;13.660;2023-02-15T00:17:52;15.15;;;9.70;;
78412;SDS011;67707;52.348;13.660;2023-02-15T00:20:17;16.35;;;10.55;;
78412;SDS011;67707;52.348;13.660;2023-02-15T00:22:43;16.90;;;11.02;;
78412;SDS011;67707;52.348;13.660;2023-02-15T00:25:09;16.65;;;10.23;;
78412;SDS011;67707;52.348;13.660;2023-02-15T00:27:34;17.20;;;10.27;;
78412;SDS011;67707;52.348;13.660;2023-02-15T00:29:59;14.13;;;8.77;;
78412;SDS011;67707;52.348;13.660;2023-02-15T00:32:25;13.23;;;9.27;;
78412;SDS011;67707;52.348;13.660;2023-02-15T00:34:50;17.03;;;9.90;;
78412;SDS011;67707;52.348;13.660;2023-02-15T00:37:15;15.43;;;9.65;;
78412;SDS011;67707;52.348;13.660;2023-02-15T00:39:41;16.27;;;10.07;;
78412;SDS011;67707;52.348;13.660;2023-02-15T00:42:06;15.53;;;9.23;;
78412;SDS011;67707;52.348;13.660;2023-02-15T00:44:31;15.03;;;9.47;;
78412;SDS011;67707;52.348;13.660;2023-02-15T00:46:57;17.97;;;10.43;;
78412;SDS011;67707;52.348;13.660;2023-02-15T00:49:22;14.13;;;8.47;;
78412;SDS011;67707;52.348;13.660;2023-02-15T00:51:47;16.20;;;9.13;;
78412;SDS011;67707;52.348;13.660;2023-02-15T00:54:13;15.57;;;9.45;;
78412;SDS011;67707;52.348;13.660;2023-02-15T00:56:38;14.63;;;9.43;;
78412;SDS011;67707;52.348;13.660;2023-02-15T00:59:03;14.47;;;8.70;;
78412;SDS011;67707;52.348;13.660;2023-02-15T01:01:29;15.77;;;9.27;;
78412;SDS011;67707;52.348;13.660;2023-02-15T01:03:54;15.13;;;8.98;;
78412;SDS011;67707;52.348;13.660;2023-02-15T01:06:20;16.05;;;9.98;;
78412;SDS011;67707;52.348;13.660;2023-02-15T01:08:45;16.77;;;11.13;;
78412;SDS011;67707;52.348;13.660;2023-02-15T01:11:11;15.77;;;9.13;;
78412;SDS011;67707;52.348;13.660;2023-02-15T01:13:38;14.95;;;8.13;;
78412;SDS011;67707;52.348;13.660;2023-02-15T01:16:04;13.95;;;9.25;;
78412;SDS011;67707;52.348;13.660;2023-02-15T01:18:30;13.05;;;8.82;;
78412;SDS011;67707;52.348;13.660;2023-02-15T01:20:55;16.85;;;9.25;;
78412;SDS011;67707;52.348;13.660;2023-02-15T01:23:20;15.50;;;9.07;;
78412;SDS011;67707;52.348;13.660;2023-02-15T01:25:46;13.48;;;8.90;;
78412;SDS011;67707;52.348;13.660;2023-02-15T01:28:11;16.50;;;9.53;;
78412;SDS011;67707;52.348;13.660;2023-02-15T01:30:37;13.43;;;8.80;;
78412;SDS011;67707;52.348;13.660;2023-02-15T01:33:02;15.07;;;9.82;;
78412;SDS011;67707;52.348;13.660;2023-02-15T01:35:28;14.88;;;9.20;;
78412;SDS011;67707;52.348;13.660;2023-02-15T01:37:54;13.70;;;8.95;;
78412;SDS011;67707;52.348;13.660;2023-02-15T01:40:20;14.15;;;8.77;;
78412;SDS011;67707;52.348;13.660;2023-02-15T01:42:46;14.63;;;10.60;;
78412;SDS011;67707;52.348;13.660;2023-02-15T01:45:29;13.90;;;9.40;;
78412;SDS011;67707;52.348;13.660;2023-02-15T01:50:33;16.63;;;9.15;;
78412;SDS011;67707;52.348;13.660;2023-02-15T01:55:58;17.05;;;10.40;;
78412;SDS011;67707;52.348;13.660;2023-02-15T01:58:25;16.30;;;12.15;;
78412;SDS011;67707;52.348;13.660;2023-02-15T02:00:52;20.70;;;11.10;;
78412;SDS011;67707;52.348;13.660;2023-02-15T02:03:20;17.15;;;10.18;;
78412;SDS011;67707;52.348;13.660;2023-02-15T02:06:10;16.52;;;10.38;;
78412;SDS011;67707;52.348;13.660;2023-02-15T02:08:35;19.27;;;12.38;;
78412;SDS011;67707;52.348;13.660;2023-02-15T02:11:01;15.20;;;9.65;;
78412;SDS011;67707;52.348;13.660;2023-02-15T02:13:26;16.48;;;9.55;;
78412;SDS011;67707;52.348;13.660;2023-02-15T02:15:58;16.88;;;10.50;;
78412;SDS011;67707;52.348;13.660;2023-02-15T02:18:35;18.27;;;10.25;;
78412;SDS011;67707;52.348;13.660;2023-02-15T02:27:07;19.50;;;10.43;;
78412;SDS011;67707;52.348;13.660;2023-02-15T02:38:00;20.17;;;13.52;;
78412;SDS011;67707;52.348;13.660;2023-02-15T02:45:51;20.95;;;11.18;;
78412;SDS011;67707;52.348;13.660;2023-02-15T02:48:21;22.17;;;12.25;;
78412;SDS011;67707;52.348;13.660;2023-02-15T02:53:13;23.63;;;13.07;;
78412;SDS011;67707;52.348;13.660;2023-02-15T02:55:46;22.88;;;12.88;;
78412;SDS011;67707;52.348;13.660;2023-02-15T03:00:44;26.88;;;15.93;;
78412;SDS011;67707;52.348;13.660;2023-02-15T03:03:56;25.48;;;13.13;;
78412;SDS011;67707;52.348;13.660;2023-02-15T03:06:05;27.67;;;16.42;;
78412;SDS011;67707;52.348;13.660;2023-02-15T03:08:35;25.73;;;14.05;;
78412;SDS011;67707;52.348;13.660;2023-02-15T03:11:03;24.35;;;13.20;;
78412;SDS011;67707;52.348;13.660;2023-02-15T03:13:29;22.15;;;12.13;;
78412;SDS011;67707;52.348;13.660;2023-02-15T03:15:55;19.85;;;12.43;;
78412;SDS011;67707;52.348;13.660;2023-02-15T03:18:44;23.95;;;13.07;;
78412;SDS011;67707;52.348;13.660;2023-02-15T03:21:17;22.75;;;12.73;;
78412;SDS011;67707;52.348;13.660;2023-02-15T03:23:48;21.65;;;12.35;;
78412;SDS011;67707;52.348;13.660;2023-02-15T03:26:16;21.17;;;12.40;;
78412;SDS011;67707;52.348;13.660;2023-02-15T03:28:43;20.77;;;11.88;;
78412;SDS011;67707;52.348;13.660;2023-02-15T03:31:11;21.08;;;12.05;;
78412;SDS011;67707;52.348;13.660;2023-02-15T03:33:38;18.02;;;11.15;;
78412;SDS011;67707;52.348;13.660;2023-02-15T03:36:26;20.92;;;14.32;;
78412;SDS011;67707;52.348;13.660;2023-02-15T03:41:41;19.02;;;10.80;;
78412;SDS011;67707;52.348;13.660;2023-02-15T03:44:15;20.08;;;11.68;;
78412;SDS011;67707;52.348;13.660;2023-02-15T03:46:46;21.05;;;13.40;;
78412;SDS011;67707;52.348;13.660;2023-02-15T03:49:24;20.30;;;12.38;;
78412;SDS011;67707;52.348;13.660;2023-02-15T03:51:52;20.65;;;10.45;;
78412;SDS011;67707;52.348;13.660;2023-02-15T03:54:22;22.20;;;12.57;;
78412;SDS011;67707;52.348;13.660;2023-02-15T03:57:09;20.35;;;14.38;;
78412;SDS011;67707;52.348;13.660;2023-02-15T04:00:12;21.48;;;12.40;;
78412;SDS011;67707;52.348;13.660;2023-02-15T04:05:48;17.73;;;10.65;;
78412;SDS011;67707;52.348;13.660;2023-02-15T04:08:13;21.33;;;11.68;;
78412;SDS011;67707;52.348;13.660;2023-02-15T04:10:39;23.05;;;13.07;;
78412;SDS011;67707;52.348;13.660;2023-02-15T04:13:17;20.38;;;11.65;;
78412;SDS011;67707;52.348;13.660;2023-02-15T04:15:46;24.85;;;12.93;;
78412;SDS011;67707;52.348;13.660;2023-02-15T04:21:18;20.85;;;13.35;;
78412;SDS011;67707;52.348;13.660;2023-02-15T04:24:02;21.50;;;12.48;;
78412;SDS011;67707;52.348;13.660;2023-02-15T04:26:49;17.58;;;11.95;;
78412;SDS011;67707;52.348;13.660;2023-02-15T04:29:17;20.75;;;14.45;;
78412;SDS011;67707;52.348;13.660;2023-02-15T04:31:43;19.50;;;11.98;;
78412;SDS011;67707;52.348;13.660;2023-02-15T04:34:09;20.87;;;11.57;;
78412;SDS011;67707;52.348;13.660;2023-02-15T04:36:35;18.60;;;10.23;;
78412;SDS011;67707;52.348;13.660;2023-02-15T04:39:01;19.38;;;11.38;;
78412;SDS011;67707;52.348;13.660;2023-02-15T04:41:26;20.40;;;12.10;;
78412;SDS011;67707;52.348;13.660;2023-02-15T04:43:52;19.17;;;11.23;;
78412;SDS011;67707;52.348;13.660;2023-02-15T04:46:17;21.42;;;11.30;;
78412;SDS011;67707;52.348;13.660;2023-02-15T04:48:43;17.90;;;10.77;;
78412;SDS011;67707;52.348;13.660;2023-02-15T04:51:09;21.00;;;11.63;;
78412;SDS011;67707;52.348;13.660;2023-02-15T04:53:34;18.73;;;11.68;;
78412;SDS011;67707;52.348;13.660;2023-02-15T04:56:00;19.85;;;14.07;;
78412;SDS011;67707;52.348;13.660;2023-02-15T04:58:26;19.92;;;12.18;;
78412;SDS011;67707;52.348;13.660;2023-02-15T05:00:54;18.53;;;11.23;;
78412;SDS011;67707;52.348;13.660;2023-02-15T05:03:20;15.55;;;11.20;;
78412;SDS011;67707;52.348;13.660;2023-02-15T05:05:45;21.10;;;12.80;;
78412;SDS011;67707;52.348;13.660;2023-02-15T05:08:11;21.80;;;12.17;;
78412;SDS011;67707;52.348;13.660;2023-02-15T05:10:36;19.97;;;11.93;;
78412;SDS011;67707;52.348;13.660;2023-02-15T05:13:01;17.42;;;11.15;;
78412;SDS011;67707;52.348;13.660;2023-02-15T05:15:27;20.33;;;11.67;;
78412;SDS011;67707;52.348;13.660;2023-02-15T05:17:52;24.07;;;12.80;;
78412;SDS011;67707;52.348;13.660;2023-02-15T05:20:17;21.52;;;11.75;;
78412;SDS011;67707;52.348;13.660;2023-02-15T05:22:43;21.90;;;12.60;;
78412;SDS011;67707;52.348;13.660;2023-02-15T05:25:09;26.50;;;12.65;;
78412;SDS011;67707;52.348;13.660;2023-02-15T05:27:53;30.55;;;15.13;;
78412;SDS011;67707;52.348;13.660;2023-02-15T05:30:37;30.27;;;14.25;;
78412;SDS011;67707;52.348;13.660;2023-02-15T05:33:04;32.45;;;14.88;;
78412;SDS011;67707;52.348;13.660;2023-02-15T05:35:31;28.83;;;14.88;;
78412;SDS011;67707;52.348;13.660;2023-02-15T05:37:57;32.80;;;14.45;;
78412;SDS011;67707;52.348;13.660;2023-02-15T05:40:22;35.90;;;15.82;;
78412;SDS011;67707;52.348;13.660;2023-02-15T05:42:47;29.65;;;15.23;;
78412;SDS011;67707;52.348;13.660;2023-02-15T05:45:13;35.50;;;13.48;;
78412;SDS011;67707;52.348;13.660;2023-02-15T05:47:38;41.95;;;15.13;;
78412;SDS011;67707;52.348;13.660;2023-02-15T05:50:04;28.90;;;14.40;;
78412;SDS011;67707;52.348;13.660;2023-02-15T05:52:29;32.05;;;13.98;;
78412;SDS011;67707;52.348;13.660;2023-02-15T05:54:55;27.47;;;14.47;;
78412;SDS011;67707;52.348;13.660;2023-02-15T05:57:20;33.93;;;14.57;;
78412;SDS011;67707;52.348;13.660;2023-02-15T05:59:45;29.87;;;14.00;;
78412;SDS011;67707;52.348;13.660;2023-02-15T06:02:11;31.60;;;16.80;;
78412;SDS011;67707;52.348;13.660;2023-02-15T06:04:36;28.25;;;13.27;;
78412;SDS011;67707;52.348;13.660;2023-02-15T06:07:02;29.75;;;13.52;;
78412;SDS011;67707;52.348;13.660;2023-02-15T06:09:27;28.02;;;13.73;;
78412;SDS011;67707;52.348;13.660;2023-02-15T06:11:52;34.33;;;15.63;;
78412;SDS011;67707;52.348;13.660;2023-02-15T06:14:18;30.67;;;13.57;;
78412;SDS011;67707;52.348;13.660;2023-02-15T06:16:43;31.98;;;13.48;;
78412;SDS011;67707;52.348;13.660;2023-02-15T06:19:08;26.45;;;13.02;;
78412;SDS011;67707;52.348;13.660;2023-02-15T06:21:34;28.08;;;14.38;;
78412;SDS011;67707;52.348;13.660;2023-02-15T06:23:59;24.50;;;13.50;;
78412;SDS011;67707;52.348;13.660;2023-02-15T06:26:24;30.50;;;12.98;;
78412;SDS011;67707;52.348;13.660;2023-02-15T06:28:50;32.80;;;12.85;;
78412;SDS011;67707;52.348;13.660;2023-02-15T06:31:15;30.47;;;13.37;;
78412;SDS011;67707;52.348;13.660;2023-02-15T06:33:41;68.90;;;14.55;;
78412;SDS011;67707;52.348;13.660;2023-02-15T06:36:06;36.20;;;14.35;;
78412;SDS011;67707;52.348;13.660;2023-02-15T06:38:32;35.00;;;12.90;;
78412;SDS011;67707;52.348;13.660;2023-02-15T06:40:57;35.50;;;12.77;;
78412;SDS011;67707;52.348;13.660;2023-02-15T06:43:23;35.83;;;15.43;;
78412;SDS011;67707;52.348;13.660;2023-02-15T06:45:48;31.50;;;13.37;;
78412;SDS011;67707;52.348;13.660;2023-02-15T06:48:13;38.88;;;12.93;;
78412;SDS011;67707;52.348;13.660;2023-02-15T06:50:39;25.52;;;13.93;;
78412;SDS011;67707;52.348;13.660;2023-02-15T06:53:04;26.55;;;12.55;;
78412;SDS011;67707;52.348;13.660;2023-02-15T06:55:30;32.65;;;11.77;;
78412;SDS011;67707;52.348;13.660;2023-02-15T06:57:55;33.25;;;12.55;;
78412;SDS011;67707;52.348;13.660;2023-02-15T07:00:20;24.63;;;11.38;;
78412;SDS011;67707;52.348;13.660;2023-02-15T07:02:48;31.13;;;12.10;;
78412;SDS011;67707;52.348;13.660;2023-02-15T07:05:20;40.00;;;12.55;;
78412;SDS011;67707;52.348;13.660;2023-02-15T07:07:45;33.88;;;12.88;;
78412;SDS011;67707;52.348;13.660;2023-02-15T07:10:10;31.57;;;13.90;;
78412;SDS011;67707;52.348;13.660;2023-02-15T07:12:36;30.17;;;12.77;;
78412;SDS011;67707;52.348;13.660;2023-02-15T07:15:08;26.77;;;11.52;;
78412;SDS011;67707;52.348;13.660;2023-02-15T07:17:34;29.65;;;11.85;;
78412;SDS011;67707;52.348;13.660;2023-02-15T07:20:00;35.90;;;13.27;;
78412;SDS011;67707;52.348;13.660;2023-02-15T07:22:26;32.08;;;12.02;;
78412;SDS011;67707;52.348;13.660;2023-02-15T07:24:52;30.08;;;12.45;;
78412;SDS011;67707;52.348;13.660;2023-02-15T07:27:19;31.25;;;11.35;;
78412;SDS011;67707;52.348;13.660;2023-02-15T07:29:45;29.60;;;13.35;;
78412;SDS011;67707;52.348;13.660;2023-02-15T07:32:10;34.80;;;11.82;;
78412;SDS011;67707;52.348;13.660;2023-02-15T07:34:35;35.77;;;11.43;;
78412;SDS011;67707;52.348;13.660;2023-02-15T07:37:01;26.90;;;10.70;;
78412;SDS011;67707;52.348;13.660;2023-02-15T07:39:27;22.58;;;10.38;;
78412;SDS011;67707;52.348;13.660;2023-02-15T07:41:52;21.53;;;11.20;;
78412;SDS011;67707;52.348;13.660;2023-02-15T07:44:17;18.45;;;11.15;;
78412;SDS011;67707;52.348;13.660;2023-02-15T07:46:43;21.40;;;11.55;;
78412;SDS011;67707;52.348;13.660;2023-02-15T07:49:08;16.58;;;10.23;;
78412;SDS011;67707;52.348;13.660;2023-02-15T07:51:34;21.83;;;10.13;;
78412;SDS011;67707;52.348;13.660;2023-02-15T07:53:59;21.60;;;13.02;;
78412;SDS011;67707;52.348;13.660;2023-02-15T07:56:24;19.08;;;10.50;;
78412;SDS011;67707;52.348;13.660;2023-02-15T07:58:50;18.70;;;9.70;;
78412;SDS011;67707;52.348;13.660;2023-02-15T08:01:15;17.85;;;9.95;;
78412;SDS011;67707;52.348;13.660;2023-02-15T08:03:42;19.02;;;10.45;;
78412;SDS011;67707;52.348;13.660;2023-02-15T08:06:07;28.60;;;16.15;;
78412;SDS011;67707;52.348;13.660;2023-02-15T08:08:33;27.35;;;13.85;;
78412;SDS011;67707;52.348;13.660;2023-02-15T08:14:02;23.50;;;14.45;;
78412;SDS011;67707;52.348;13.660;2023-02-15T08:19:05;21.88;;;11.18;;
78412;SDS011;67707;52.348;13.660;2023-02-15T08:21:43;25.58;;;10.82;;
78412;SDS011;67707;52.348;13.660;2023-02-15T08:24:12;25.98;;;11.40;;
78412;SDS011;67707;52.348;13.660;2023-02-15T08:26:39;20.00;;;11.43;;
78412;SDS011;67707;52.348;13.660;2023-02-15T08:29:05;23.30;;;10.90;;
78412;SDS011;67707;52.348;13.660;2023-02-15T08:31:32;19.83;;;9.80;;
78412;SDS011;67707;52.348;13.660;2023-02-15T08:33:57;18.15;;;10.30;;
78412;SDS011;67707;52.348;13.660;2023-02-15T08:36:24;20.08;;;11.05;;
78412;SDS011;67707;52.348;13.660;2023-02-15T08:38:54;17.77;;;10.15;;
78412;SDS011;67707;52.348;13.660;2023-02-15T08:41:23;17.92;;;9.95;;
78412;SDS011;67707;52.348;13.660;2023-02-15T08:43:51;22.33;;;13.52;;
78412;SDS011;67707;52.348;13.660;2023-02-15T08:46:18;17.35;;;11.02;;
78412;SDS011;67707;52.348;13.660;2023-02-15T08:48:44;22.02;;;10.90;;
78412;SDS011;67707;52.348;13.660;2023-02-15T08:51:17;22.83;;;10.70;;
78412;SDS011;67707;52.348;13.660;2023-02-15T08:53:45;24.13;;;10.77;;
78412;SDS011;67707;52.348;13.660;2023-02-15T08:56:16;15.18;;;10.32;;
78412;SDS011;67707;52.348;13.660;2023-02-15T08:58:43;30.23;;;11.32;;
78412;SDS011;67707;52.348;13.660;2023-02-15T09:01:12;20.77;;;11.32;;
78412;SDS011;67707;52.348;13.660;2023-02-15T09:03:39;16.63;;;10.75;;
78412;SDS011;67707;52.348;13.660;2023-02-15T09:06:05;17.80;;;12.07;;
78412;SDS011;67707;52.348;13.660;2023-02-15T09:08:31;15.65;;;10.30;;
78412;SDS011;67707;52.348;13.660;2023-02-15T09:11:07;14.57;;;9.73;;
78412;SDS011;67707;52.348;13.660;2023-02-15T09:13:33;17.60;;;11.70;;
78412;SDS011;67707;52.348;13.660;2023-02-15T09:15:59;17.02;;;9.95;;
78412;SDS011;67707;52.348;13.660;2023-02-15T09:18:26;14.93;;;9.80;;
78412;SDS011;67707;52.348;13.660;2023-02-15T09:20:52;14.98;;;9.73;;
78412;SDS011;67707;52.348;13.660;2023-02-15T09:23:17;19.83;;;13.18;;
78412;SDS011;67707;52.348;13.660;2023-02-15T09:25:42;12.70;;;8.83;;
78412;SDS011;67707;52.348;13.660;2023-02-15T09:28:08;14.70;;;9.17;;
78412;SDS011;67707;52.348;13.660;2023-02-15T09:30:33;15.82;;;9.35;;
78412;SDS011;67707;52.348;13.660;2023-02-15T09:32:59;14.57;;;8.65;;
78412;SDS011;67707;52.348;13.660;2023-02-15T09:35:24;13.07;;;9.50;;
78412;SDS011;67707;52.348;13.660;2023-02-15T09:37:50;14.75;;;9.77;;
78412;SDS011;67707;52.348;13.660;2023-02-15T09:40:15;14.52;;;11.52;;
78412;SDS011;67707;52.348;13.660;2023-02-15T09:45:36;14.00;;;9.55;;
78412;SDS011;67707;52.348;13.660;2023-02-15T09:48:17;14.43;;;10.65;;
78412;SDS011;67707;52.348;13.660;2023-02-15T09:56:58;14.00;;;9.38;;
78412;SDS011;67707;52.348;13.660;2023-02-15T10:05:40;12.40;;;10.13;;
78412;SDS011;67707;52.348;13.660;2023-02-15T10:10:34;12.13;;;9.80;;
78412;SDS011;67707;52.348;13.660;2023-02-15T10:18:05;11.32;;;8.35;;
78412;SDS011;67707;52.348;13.660;2023-02-15T10:20:55;11.10;;;8.07;;
78412;SDS011;67707;52.348;13.660;2023-02-15T10:23:55;10.32;;;8.80;;
78412;SDS011;67707;52.348;13.660;2023-02-15T10:26:48;11.88;;;8.80;;
78412;SDS011;67707;52.348;13.660;2023-02-15T10:29:27;11.45;;;9.52;;
78412;SDS011;67707;52.348;13.660;2023-02-15T10:34:39;11.70;;;9.18;;
78412;SDS011;67707;52.348;13.660;2023-02-15T10:40:20;10.82;;;9.43;;
78412;SDS011;67707;52.348;13.660;2023-02-15T10:48:35;9.20;;;7.50;;
78412;SDS011;67707;52.348;13.660;2023-02-15T10:51:05;10.30;;;8.60;;
78412;SDS011;67707;52.348;13.660;2023-02-15T10:58:40;11.07;;;9.40;;
78412;SDS011;67707;52.348;13.660;2023-02-15T11:01:16;10.27;;;8.82;;
78412;SDS011;67707;52.348;13.660;2023-02-15T11:07:06;10.60;;;8.85;;
78412;SDS011;67707;52.348;13.660;2023-02-15T11:09:38;11.25;;;8.43;;
78412;SDS011;67707;52.348;13.660;2023-02-15T11:12:26;10.15;;;8.60;;
78412;SDS011;67707;52.348;13.660;2023-02-15T11:14:55;10.70;;;8.65;;
78412;SDS011;67707;52.348;13.660;2023-02-15T11:17:44;9.27;;;7.97;;
78412;SDS011;67707;52.348;13.660;2023-02-15T11:23:14;9.52;;;8.15;;
78412;SDS011;67707;52.348;13.660;2023-02-15T11:25:41;9.90;;;8.23;;
78412;SDS011;67707;52.348;13.660;2023-02-15T11:28:10;10.23;;;8.73;;
78412;SDS011;67707;52.348;13.660;2023-02-15T11:30:44;10.05;;;8.70;;
78412;SDS011;67707;52.348;13.660;2023-02-15T11:33:20;10.10;;;8.88;;
78412;SDS011;67707;52.348;13.660;2023-02-15T11:38:21;7.90;;;6.78;;
78412;SDS011;67707;52.348;13.660;2023-02-15T11:45:52;7.50;;;6.70;;
78412;SDS011;67707;52.348;13.660;2023-02-15T11:48:19;8.00;;;6.55;;
78412;SDS011;67707;52.348;13.660;2023-02-15T11:50:45;6.70;;;5.80;;
78412;SDS011;67707;52.348;13.660;2023-02-15T11:53:15;7.68;;;6.50;;
78412;SDS011;67707;52.348;13.660;2023-02-15T11:55:51;7.82;;;6.97;;
78412;SDS011;67707;52.348;13.660;2023-02-15T12:01:13;6.38;;;5.65;;
78412;SDS011;67707;52.348;13.660;2023-02-15T12:03:49;6.40;;;5.22;;
78412;SDS011;67707;52.348;13.660;2023-02-15T12:06:18;7.32;;;6.50;;
78412;SDS011;67707;52.348;13.660;2023-02-15T12:08:49;6.30;;;5.15;;
78412;SDS011;67707;52.348;13.660;2023-02-15T12:11:22;8.27;;;5.57;;
78412;SDS011;67707;52.348;13.660;2023-02-15T12:13:57;8.68;;;7.97;;
78412;SDS011;67707;52.348;13.660;2023-02-15T12:16:24;7.35;;;5.68;;
78412;SDS011;67707;52.348;13.660;2023-02-15T12:18:50;6.15;;;5.40;;
78412;SDS011;67707;52.348;13.660;2023-02-15T12:21:25;6.47;;;5.65;;
78412;SDS011;67707;52.348;13.660;2023-02-15T12:23:53;6.60;;;6.00;;
78412;SDS011;67707;52.348;13.660;2023-02-15T12:26:28;5.82;;;5.13;;
78412;SDS011;67707;52.348;13.660;2023-02-15T12:28:57;6.18;;;5.30;;
78412;SDS011;67707;52.348;13.660;2023-02-15T12:31:27;6.43;;;5.82;;
78412;SDS011;67707;52.348;13.660;2023-02-15T12:33:56;5.70;;;5.10;;
78412;SDS011;67707;52.348;13.660;2023-02-15T12:36:30;7.57;;;6.97;;
78412;SDS011;67707;52.348;13.660;2023-02-15T12:39:04;7.10;;;6.10;;
78412;SDS011;67707;52.348;13.660;2023-02-15T12:41:30;6.90;;;6.18;;
78412;SDS011;67707;52.348;13.660;2023-02-15T12:44:06;6.65;;;5.70;;
78412;SDS011;67707;52.348;13.660;2023-02-15T12:46:40;7.00;;;6.32;;
78412;SDS011;67707;52.348;13.660;2023-02-15T12:49:07;5.82;;;5.22;;
78412;SDS011;67707;52.348;13.660;2023-02-15T12:51:46;5.38;;;4.88;;
78412;SDS011;67707;52.348;13.660;2023-02-15T12:54:17;8.68;;;7.97;;
78412;SDS011;67707;52.348;13.660;2023-02-15T12:56:59;5.60;;;5.10;;
78412;SDS011;67707;52.348;13.660;2023-02-15T13:00:25;7.90;;;7.30;;
78412;SDS011;67707;52.348;13.660;2023-02-15T13:02:41;5.93;;;5.35;;
78412;SDS011;67707;52.348;13.660;2023-02-15T13:08:27;7.45;;;6.85;;
78412;SDS011;67707;52.348;13.660;2023-02-15T13:11:02;5.95;;;5.32;;
78412;SDS011;67707;52.348;13.660;2023-02-15T13:13:55;6.28;;;5.72;;
78412;SDS011;67707;52.348;13.660;2023-02-15T13:19:03;5.25;;;4.75;;
78412;SDS011;67707;52.348;13.660;2023-02-15T13:21:36;4.72;;;4.28;;
78412;SDS011;67707;52.348;13.660;2023-02-15T13:24:12;4.85;;;4.45;;
78412;SDS011;67707;52.348;13.660;2023-02-15T13:26:43;5.13;;;4.63;;
78412;SDS011;67707;52.348;13.660;2023-02-15T13:31:52;4.75;;;4.25;;
78412;SDS011;67707;52.348;13.660;2023-02-15T13:34:25;4.75;;;4.35;;
78412;SDS011;67707;52.348;13.660;2023-02-15T13:39:41;4.43;;;3.97;;
78412;SDS011;67707;52.348;13.660;2023-02-15T13:47:25;6.13;;;4.95;;
78412;SDS011;67707;52.348;13.660;2023-02-15T13:52:25;4.03;;;3.63;;
78412;SDS011;67707;52.348;13.660;2023-02-15T13:54:56;3.58;;;3.28;;
78412;SDS011;67707;52.348;13.660;2023-02-15T13:57:35;3.95;;;3.55;;
78412;SDS011;67707;52.348;13.660;2023-02-15T14:00:22;3.53;;;3.22;;
78412;SDS011;67707;52.348;13.660;2023-02-15T14:08:13;3.92;;;3.53;;
78412;SDS011;67707;52.348;13.660;2023-02-15T14:16:27;3.55;;;3.25;;
78412;SDS011;67707;52.348;13.660;2023-02-15T14:19:01;3.75;;;3.35;;
78412;SDS011;67707;52.348;13.660;2023-02-15T14:21:50;3.95;;;3.53;;
78412;SDS011;67707;52.348;13.660;2023-02-15T14:27:01;4.18;;;3.55;;
78412;SDS011;67707;52.348;13.660;2023-02-15T14:32:04;3.88;;;3.47;;
78412;SDS011;67707;52.348;13.660;2023-02-15T14:37:17;3.75;;;3.45;;
78412;SDS011;67707;52.348;13.660;2023-02-15T14:39:56;3.50;;;2.78;;
78412;SDS011;67707;52.348;13.660;2023-02-15T14:42:52;4.10;;;2.80;;
78412;SDS011;67707;52.348;13.660;2023-02-15T14:45:35;3.35;;;3.03;;
78412;SDS011;67707;52.348;13.660;2023-02-15T14:48:50;4.30;;;2.80;;
78412;SDS011;67707;52.348;13.660;2023-02-15T14:50:57;3.72;;;3.13;;
78412;SDS011;67707;52.348;13.660;2023-02-15T14:56:13;4.20;;;3.05;;
78412;SDS011;67707;52.348;13.660;2023-02-15T15:01:14;3.58;;;3.08;;
78412;SDS011;67707;52.348;13.660;2023-02-15T15:03:45;3.95;;;3.35;;
78412;SDS011;67707;52.348;13.660;2023-02-15T15:06:23;5.22;;;4.72;;
78412;SDS011;67707;52.348;13.660;2023-02-15T15:09:00;4.10;;;3.70;;
78412;SDS011;67707;52.348;13.660;2023-02-15T15:11:51;3.42;;;2.67;;
78412;SDS011;67707;52.348;13.660;2023-02-15T15:16:59;3.42;;;2.63;;
78412;SDS011;67707;52.348;13.660;2023-02-15T15:22:18;4.32;;;3.92;;
78412;SDS011;67707;52.348;13.660;2023-02-15T15:24:45;3.90;;;2.50;;
78412;SDS011;67707;52.348;13.660;2023-02-15T15:30:10;4.68;;;2.92;;
78412;SDS011;67707;52.348;13.660;2023-02-15T15:44:16;3.72;;;2.55;;
78412;SDS011;67707;52.348;13.660;2023-02-15T15:49:23;3.58;;;3.17;;
78412;SDS011;67707;52.348;13.660;2023-02-15T15:51:49;6.03;;;4.78;;
78412;SDS011;67707;52.348;13.660;2023-02-15T15:57:13;5.28;;;4.45;;
78412;SDS011;67707;52.348;13.660;2023-02-15T15:59:43;5.22;;;4.32;;
78412;SDS011;67707;52.348;13.660;2023-02-15T16:02:16;4.57;;;4.10;;
78412;SDS011;67707;52.348;13.660;2023-02-15T16:04:42;7.45;;;5.70;;
78412;SDS011;67707;52.348;13.660;2023-02-15T16:09:59;9.23;;;5.10;;
78412;SDS011;67707;52.348;13.660;2023-02-15T16:12:27;5.53;;;4.50;;
78412;SDS011;67707;52.348;13.660;2023-02-15T16:14:54;4.25;;;3.10;;
78412;SDS011;67707;52.348;13.660;2023-02-15T16:17:24;5.13;;;4.72;;
78412;SDS011;67707;52.348;13.660;2023-02-15T16:19:58;5.25;;;3.13;;
78412;SDS011;67707;52.348;13.660;2023-02-15T16:22:26;9.48;;;6.03;;
78412;SDS011;67707;52.348;13.660;2023-02-15T16:32:45;4.30;;;2.50;;
78412;SDS011;67707;52.348;13.660;2023-02-15T16:35:15;4.88;;;2.38;;
78412;SDS011;67707;52.348;13.660;2023-02-15T16:37:42;5.88;;;3.70;;
78412;SDS011;67707;52.348;13.660;2023-02-15T16:42:49;3.60;;;2.88;;
78412;SDS011;67707;52.348;13.660;2023-02-15T16:45:16;4.25;;;3.33;;
78412;SDS011;67707;52.348;13.660;2023-02-15T16:47:44;3.78;;;2.45;;
78412;SDS011;67707;52.348;13.660;2023-02-15T16:50:22;3.83;;;3.35;;
78412;SDS011;67707;52.348;13.660;2023-02-15T16:52:49;4.72;;;4.32;;
78412;SDS011;67707;52.348;13.660;2023-02-15T16:55:23;3.92;;;2.72;;
78412;SDS011;67707;52.348;13.660;2023-02-15T16:57:52;5.13;;;4.63;;
78412;SDS011;67707;52.348;13.660;2023-02-15T17:00:25;3.33;;;2.45;;
78412;SDS011;67707;52.348;13.660;2023-02-15T17:13:42;3.50;;;2.20;;
78412;SDS011;67707;52.348;13.660;2023-02-15T17:16:53;2.75;;;2.05;;
78412;SDS011;67707;52.348;13.660;2023-02-15T17:19:28;3.45;;;2.25;;
78412;SDS011;67707;52.348;13.660;2023-02-15T17:21:57;3.28;;;2.45;;
78412;SDS011;67707;52.348;13.660;2023-02-15T17:24:31;3.15;;;2.17;;
78412;SDS011;67707;52.348;13.660;2023-02-15T17:27:03;4.32;;;2.38;;
78412;SDS011;67707;52.348;13.660;2023-02-15T17:29:33;3.47;;;2.33;;
78412;SDS011;67707;52.348;13.660;2023-02-15T17:31:59;3.33;;;2.42;;
78412;SDS011;67707;52.348;13.660;2023-02-15T17:40:06;3.40;;;2.20;;
78412;SDS011;67707;52.348;13.660;2023-02-15T17:42:39;4.13;;;2.47;;
78412;SDS011;67707;52.348;13.660;2023-02-15T17:45:05;3.17;;;2.30;;
78412;SDS011;67707;52.348;13.660;2023-02-15T17:47:30;3.40;;;2.47;;
78412;SDS011;67707;52.348;13.660;2023-02-15T17:49:56;3.05;;;2.47;;
78412;SDS011;67707;52.348;13.660;2023-02-15T17:52:22;2.97;;;2.53;;